sensor_id;sensor_type;location;lat;lon;timestamp;pressure;altitude;pressure_sealevel;temperature;humidity
77893;BME280;67087;50.094;14.338;2023-08-17T00:00:47;98277.54;;;28.46;37.39
77893;BME280;67087;50.094;14.338;2023-08-17T00:03:12;98275.19;;;28.38;37.52
77893;BME280;67087;50.094;14.338;2023-08-17T00:05:38;98270.94;;;28.57;37.37
77893;BME280;67087;50.094;14.338;2023-08-17T00:08:03;98268.32;;;28.54;37.37
77893;BME280;67087;50.094;14.338;2023-08-17T00:10:28;98266.56;;;28.61;36.91
77893;BME280;67087;50.094;14.338;2023-08-17T00:12:53;98268.64;;;28.23;37.18
77893;BME280;67087;50.094;14.338;2023-08-17T00:15:18;98267.80;;;28.56;37.03
77893;BME280;67087;50.094;14.338;2023-08-17T00:17:43;98262.24;;;28.39;37.14
77893;BME280;67087;50.094;14.338;2023-08-17T00:20:08;98258.45;;;28.32;37.30
77893;BME280;67087;50.094;14.338;2023-08-17T00:22:33;98257.65;;;28.29;37.28
77893;BME280;67087;50.094;14.338;2023-08-17T00:24:58;98254.72;;;28.45;37.08
77893;BME280;67087;50.094;14.338;2023-08-17T00:27:24;98258.44;;;28.38;37.24
77893;BME280;67087;50.094;14.338;2023-08-17T00:29:49;98258.94;;;28.43;37.03
77893;BME280;67087;50.094;14.338;2023-08-17T00:32:14;98260.06;;;28.19;37.48
77893;BME280;67087;50.094;14.338;2023-08-17T00:34:39;98260.18;;;28.24;37.48
77893;BME280;67087;50.094;14.338;2023-08-17T00:37:04;98257.53;;;28.31;37.17
77893;BME280;67087;50.094;14.338;2023-08-17T00:39:30;98254.62;;;28.09;37.57
77893;BME280;67087;50.094;14.338;2023-08-17T00:41:55;98252.69;;;28.11;37.75
77893;BME280;67087;50.094;14.338;2023-08-17T00:44:20;98249.65;;;28.01;37.93
77893;BME280;67087;50.094;14.338;2023-08-17T00:46:45;98246.35;;;27.99;37.83
77893;BME280;67087;50.094;14.338;2023-08-17T00:49:10;98240.89;;;28.00;37.97
77893;BME280;67087;50.094;14.338;2023-08-17T00:51:35;98239.70;;;28.21;38.02
77893;BME280;67087;50.094;14.338;2023-08-17T00:54:01;98246.20;;;28.22;37.25
77893;BME280;67087;50.094;14.338;2023-08-17T00:56:26;98252.18;;;28.54;37.56
77893;BME280;67087;50.094;14.338;2023-08-17T00:58:51;98256.72;;;28.05;37.65
77893;BME280;67087;50.094;14.338;2023-08-17T01:01:16;98258.69;;;28.14;37.50
77893;BME280;67087;50.094;14.338;2023-08-17T01:03:42;98262.29;;;28.60;36.93
77893;BME280;67087;50.094;14.338;2023-08-17T01:06:06;98257.56;;;28.44;37.47
77893;BME280;67087;50.094;14.338;2023-08-17T01:08:32;98252.81;;;28.57;37.25
77893;BME280;67087;50.094;14.338;2023-08-17T01:11:01;98244.64;;;28.23;37.14
77893;BME280;67087;50.094;14.338;2023-08-17T01:13:28;98239.98;;;28.00;37.68
77893;BME280;67087;50.094;14.338;2023-08-17T01:15:50;98236.90;;;28.21;37.81
77893;BME280;67087;50.094;14.338;2023-08-17T01:18:20;98245.41;;;28.04;37.66
77893;BME280;67087;50.094;14.338;2023-08-17T01:20:38;98250.52;;;28.48;37.30
77893;BME280;67087;50.094;14.338;2023-08-17T01:23:04;98256.89;;;28.20;37.20
77893;BME280;67087;50.094;14.338;2023-08-17T01:25:28;98256.97;;;28.27;37.20
77893;BME280;67087;50.094;14.338;2023-08-17T01:27:53;98258.53;;;28.13;37.27
77893;BME280;67087;50.094;14.338;2023-08-17T01:30:18;98256.48;;;29.15;36.49
77893;BME280;67087;50.094;14.338;2023-08-17T01:32:49;98254.78;;;28.35;37.28
77893;BME280;67087;50.094;14.338;2023-08-17T01:35:14;98249.60;;;28.49;36.61
77893;BME280;67087;50.094;14.338;2023-08-17T01:37:34;98245.74;;;28.14;37.17
77893;BME280;67087;50.094;14.338;2023-08-17T01:39:59;98241.53;;;28.41;37.11
77893;BME280;67087;50.094;14.338;2023-08-17T01:42:24;98235.85;;;28.29;37.27
77893;BME280;67087;50.094;14.338;2023-08-17T01:44:50;98229.37;;;27.95;37.46
77893;BME280;67087;50.094;14.338;2023-08-17T01:47:15;98221.75;;;28.30;37.20
77893;BME280;67087;50.094;14.338;2023-08-17T01:49:40;98214.82;;;28.04;37.27
77893;BME280;67087;50.094;14.338;2023-08-17T01:52:05;98212.36;;;27.90;37.44
77893;BME280;67087;50.094;14.338;2023-08-17T01:54:31;98207.18;;;28.13;37.50
77893;BME280;67087;50.094;14.338;2023-08-17T01:56:56;98203.20;;;28.18;37.42
77893;BME280;67087;50.094;14.338;2023-08-17T01:59:21;98203.68;;;28.19;37.43
77893;BME280;67087;50.094;14.338;2023-08-17T02:01:46;98209.80;;;28.10;37.51
77893;BME280;67087;50.094;14.338;2023-08-17T02:04:11;98209.63;;;28.16;37.47
77893;BME280;67087;50.094;14.338;2023-08-17T02:06:36;98207.72;;;27.95;37.36
77893;BME280;67087;50.094;14.338;2023-08-17T02:09:01;98206.12;;;27.96;37.29
77893;BME280;67087;50.094;14.338;2023-08-17T02:11:26;98202.67;;;28.28;37.08
77893;BME280;67087;50.094;14.338;2023-08-17T02:13:51;98203.74;;;28.10;36.98
77893;BME280;67087;50.094;14.338;2023-08-17T02:16:17;98204.99;;;28.09;36.99
77893;BME280;67087;50.094;14.338;2023-08-17T02:18:42;98200.10;;;28.15;37.35
77893;BME280;67087;50.094;14.338;2023-08-17T02:21:07;98198.62;;;28.05;37.06
77893;BME280;67087;50.094;14.338;2023-08-17T02:23:32;98199.33;;;28.43;36.86
77893;BME280;67087;50.094;14.338;2023-08-17T02:25:58;98200.69;;;28.08;36.95
77893;BME280;67087;50.094;14.338;2023-08-17T02:28:23;98202.83;;;28.34;36.93
77893;BME280;67087;50.094;14.338;2023-08-17T02:30:48;98200.31;;;28.35;36.91
77893;BME280;67087;50.094;14.338;2023-08-17T02:33:13;98196.15;;;27.88;37.42
77893;BME280;67087;50.094;14.338;2023-08-17T02:35:38;98199.91;;;27.98;37.14
77893;BME280;67087;50.094;14.338;2023-08-17T02:38:04;98209.51;;;28.14;37.19
77893;BME280;67087;50.094;14.338;2023-08-17T02:40:29;98212.12;;;28.12;37.25
77893;BME280;67087;50.094;14.338;2023-08-17T02:42:54;98212.30;;;28.11;37.23
77893;BME280;67087;50.094;14.338;2023-08-17T02:45:19;98211.61;;;28.13;37.15
77893;BME280;67087;50.094;14.338;2023-08-17T02:47:44;98209.46;;;28.24;36.92
77893;BME280;67087;50.094;14.338;2023-08-17T02:50:09;98211.38;;;28.05;37.31
77893;BME280;67087;50.094;14.338;2023-08-17T02:52:34;98211.18;;;28.57;36.53
77893;BME280;67087;50.094;14.338;2023-08-17T02:54:59;98217.31;;;28.53;36.43
77893;BME280;67087;50.094;14.338;2023-08-17T02:57:24;98222.13;;;28.94;36.33
77893;BME280;67087;50.094;14.338;2023-08-17T02:59:49;98224.96;;;28.39;36.71
77893;BME280;67087;50.094;14.338;2023-08-17T03:02:14;98224.06;;;28.22;36.76
77893;BME280;67087;50.094;14.338;2023-08-17T03:04:39;98224.51;;;28.13;36.89
77893;BME280;67087;50.094;14.338;2023-08-17T03:07:05;98227.80;;;27.87;36.82
77893;BME280;67087;50.094;14.338;2023-08-17T03:09:30;98232.30;;;27.71;37.15
77893;BME280;67087;50.094;14.338;2023-08-17T03:11:55;98231.72;;;28.57;36.44
77893;BME280;67087;50.094;14.338;2023-08-17T03:14:20;98230.65;;;28.24;36.04
77893;BME280;67087;50.094;14.338;2023-08-17T03:16:45;98229.56;;;28.44;36.00
77893;BME280;67087;50.094;14.338;2023-08-17T03:19:10;98229.29;;;27.93;36.28
77893;BME280;67087;50.094;14.338;2023-08-17T03:21:36;98228.19;;;28.36;36.11
77893;BME280;67087;50.094;14.338;2023-08-17T03:24:01;98227.27;;;28.28;36.26
77893;BME280;67087;50.094;14.338;2023-08-17T03:26:27;98230.35;;;28.66;36.08
77893;BME280;67087;50.094;14.338;2023-08-17T03:28:52;98234.02;;;28.55;36.30
77893;BME280;67087;50.094;14.338;2023-08-17T03:31:17;98236.45;;;28.28;36.74
77893;BME280;67087;50.094;14.338;2023-08-17T03:33:43;98235.02;;;28.17;36.90
77893;BME280;67087;50.094;14.338;2023-08-17T03:36:08;98228.15;;;28.33;36.63
77893;BME280;67087;50.094;14.338;2023-08-17T03:38:33;98224.34;;;28.45;36.42
77893;BME280;67087;50.094;14.338;2023-08-17T03:40:58;98222.98;;;28.24;36.38
77893;BME280;67087;50.094;14.338;2023-08-17T03:43:23;98223.23;;;28.09;36.55
77893;BME280;67087;50.094;14.338;2023-08-17T03:45:48;98225.12;;;28.00;36.29
77893;BME280;67087;50.094;14.338;2023-08-17T03:48:14;98227.02;;;28.14;36.49
77893;BME280;67087;50.094;14.338;2023-08-17T03:50:39;98224.64;;;28.17;36.09
77893;BME280;67087;50.094;14.338;2023-08-17T03:53:04;98226.77;;;28.47;35.93
77893;BME280;67087;50.094;14.338;2023-08-17T03:55:29;98235.66;;;28.42;36.00
77893;BME280;67087;50.094;14.338;2023-08-17T03:57:55;98236.18;;;28.26;36.68
77893;BME280;67087;50.094;14.338;2023-08-17T04:00:20;98236.69;;;27.71;37.18
77893;BME280;67087;50.094;14.338;2023-08-17T04:02:45;98239.90;;;28.07;36.96
77893;BME280;67087;50.094;14.338;2023-08-17T04:05:10;98242.24;;;28.30;36.03
77893;BME280;67087;50.094;14.338;2023-08-17T04:07:36;98239.90;;;27.94;36.21
77893;BME280;67087;50.094;14.338;2023-08-17T04:10:01;98240.56;;;27.83;36.48
77893;BME280;67087;50.094;14.338;2023-08-17T04:12:26;98244.44;;;27.95;36.65
77893;BME280;67087;50.094;14.338;2023-08-17T04:14:51;98249.48;;;27.89;36.33
77893;BME280;67087;50.094;14.338;2023-08-17T04:17:17;98248.84;;;28.21;36.29
77893;BME280;67087;50.094;14.338;2023-08-17T04:19:42;98252.33;;;28.33;36.48
77893;BME280;67087;50.094;14.338;2023-08-17T04:22:07;98252.64;;;28.29;36.81
77893;BME280;67087;50.094;14.338;2023-08-17T04:24:33;98254.08;;;28.17;36.70
77893;BME280;67087;50.094;14.338;2023-08-17T04:26:58;98256.33;;;28.08;36.74
77893;BME280;67087;50.094;14.338;2023-08-17T04:29:23;98258.43;;;27.93;37.01
77893;BME280;67087;50.094;14.338;2023-08-17T04:31:48;98265.98;;;28.19;36.50
77893;BME280;67087;50.094;14.338;2023-08-17T04:34:13;98268.39;;;28.37;38.02
77893;BME280;67087;50.094;14.338;2023-08-17T04:36:39;98278.00;;;28.46;37.90
77893;BME280;67087;50.094;14.338;2023-08-17T04:39:04;98277.18;;;28.04;36.83
77893;BME280;67087;50.094;14.338;2023-08-17T04:41:29;98279.27;;;27.99;38.01
77893;BME280;67087;50.094;14.338;2023-08-17T04:43:55;98282.06;;;28.14;37.64
77893;BME280;67087;50.094;14.338;2023-08-17T04:46:19;98283.33;;;28.38;37.09
77893;BME280;67087;50.094;14.338;2023-08-17T04:48:44;98288.94;;;28.46;36.98
77893;BME280;67087;50.094;14.338;2023-08-17T04:51:09;98291.12;;;28.24;36.41
77893;BME280;67087;50.094;14.338;2023-08-17T04:53:35;98292.94;;;28.38;35.87
77893;BME280;67087;50.094;14.338;2023-08-17T04:56:00;98293.46;;;28.91;33.94
77893;BME280;67087;50.094;14.338;2023-08-17T04:58:25;98291.13;;;28.74;34.57
77893;BME280;67087;50.094;14.338;2023-08-17T05:00:51;98288.44;;;27.27;36.32
77893;BME280;67087;50.094;14.338;2023-08-17T05:03:15;98292.92;;;27.65;36.80
77893;BME280;67087;50.094;14.338;2023-08-17T05:05:41;98287.63;;;27.83;36.23
77893;BME280;67087;50.094;14.338;2023-08-17T05:08:06;98286.31;;;27.93;35.68
77893;BME280;67087;50.094;14.338;2023-08-17T05:10:31;98289.16;;;27.80;35.78
77893;BME280;67087;50.094;14.338;2023-08-17T05:12:57;98294.01;;;27.62;36.38
77893;BME280;67087;50.094;14.338;2023-08-17T05:15:22;98295.94;;;27.72;36.38
77893;BME280;67087;50.094;14.338;2023-08-17T05:17:47;98305.78;;;26.75;37.60
77893;BME280;67087;50.094;14.338;2023-08-17T05:20:13;98307.44;;;27.44;37.21
77893;BME280;67087;50.094;14.338;2023-08-17T05:22:38;98309.55;;;27.16;37.30
77893;BME280;67087;50.094;14.338;2023-08-17T05:25:05;98312.19;;;28.13;36.30
77893;BME280;67087;50.094;14.338;2023-08-17T05:27:30;98318.78;;;28.07;36.31
77893;BME280;67087;50.094;14.338;2023-08-17T05:29:55;98324.09;;;27.62;37.04
77893;BME280;67087;50.094;14.338;2023-08-17T05:32:20;98319.84;;;26.48;38.90
77893;BME280;67087;50.094;14.338;2023-08-17T05:34:46;98318.59;;;27.04;38.03
77893;BME280;67087;50.094;14.338;2023-08-17T05:37:11;98317.58;;;26.73;38.53
77893;BME280;67087;50.094;14.338;2023-08-17T05:39:36;98316.40;;;27.06;38.00
77893;BME280;67087;50.094;14.338;2023-08-17T05:42:01;98320.84;;;26.81;38.57
77893;BME280;67087;50.094;14.338;2023-08-17T05:44:27;98323.85;;;26.70;38.25
77893;BME280;67087;50.094;14.338;2023-08-17T05:46:53;98327.15;;;26.83;38.57
77893;BME280;67087;50.094;14.338;2023-08-17T05:49:18;98323.94;;;25.83;40.00
77893;BME280;67087;50.094;14.338;2023-08-17T05:51:44;98325.47;;;27.20;38.16
77893;BME280;67087;50.094;14.338;2023-08-17T05:54:10;98324.44;;;26.99;39.43
77893;BME280;67087;50.094;14.338;2023-08-17T05:56:35;98320.20;;;27.06;39.23
77893;BME280;67087;50.094;14.338;2023-08-17T05:59:01;98315.47;;;26.85;38.91
77893;BME280;67087;50.094;14.338;2023-08-17T06:01:26;98320.91;;;27.13;38.20
77893;BME280;67087;50.094;14.338;2023-08-17T06:03:52;98322.38;;;27.43;38.13
77893;BME280;67087;50.094;14.338;2023-08-17T06:06:17;98324.52;;;27.09;38.28
77893;BME280;67087;50.094;14.338;2023-08-17T06:08:42;98320.81;;;27.54;38.32
77893;BME280;67087;50.094;14.338;2023-08-17T06:11:08;98319.80;;;27.58;38.27
77893;BME280;67087;50.094;14.338;2023-08-17T06:13:33;98323.84;;;27.16;38.27
77893;BME280;67087;50.094;14.338;2023-08-17T06:15:58;98324.97;;;27.43;38.19
77893;BME280;67087;50.094;14.338;2023-08-17T06:18:24;98322.02;;;27.37;37.93
77893;BME280;67087;50.094;14.338;2023-08-17T06:20:49;98318.73;;;27.29;38.06
77893;BME280;67087;50.094;14.338;2023-08-17T06:23:14;98320.70;;;27.03;38.08
77893;BME280;67087;50.094;14.338;2023-08-17T06:25:39;98305.77;;;27.61;37.76
77893;BME280;67087;50.094;14.338;2023-08-17T06:28:06;98308.60;;;27.22;38.31
77893;BME280;67087;50.094;14.338;2023-08-17T06:30:30;98296.29;;;27.32;38.16
77893;BME280;67087;50.094;14.338;2023-08-17T06:32:55;98291.61;;;27.30;38.23
77893;BME280;67087;50.094;14.338;2023-08-17T06:35:20;98288.18;;;27.46;38.02
77893;BME280;67087;50.094;14.338;2023-08-17T06:37:45;98286.79;;;27.46;38.08
77893;BME280;67087;50.094;14.338;2023-08-17T06:40:11;98287.12;;;27.35;38.24
77893;BME280;67087;50.094;14.338;2023-08-17T06:42:35;98287.39;;;27.40;38.16
77893;BME280;67087;50.094;14.338;2023-08-17T06:45:01;98288.03;;;27.34;38.16
77893;BME280;67087;50.094;14.338;2023-08-17T06:47:26;98292.97;;;27.39;38.10
77893;BME280;67087;50.094;14.338;2023-08-17T06:49:51;98293.96;;;27.45;38.08
77893;BME280;67087;50.094;14.338;2023-08-17T06:52:16;98296.90;;;27.61;37.96
77893;BME280;67087;50.094;14.338;2023-08-17T06:54:42;98294.26;;;27.50;38.15
77893;BME280;67087;50.094;14.338;2023-08-17T06:57:07;98294.04;;;27.60;38.13
77893;BME280;67087;50.094;14.338;2023-08-17T06:59:32;98296.70;;;27.61;38.19
77893;BME280;67087;50.094;14.338;2023-08-17T07:01:58;98297.90;;;27.53;38.21
77893;BME280;67087;50.094;14.338;2023-08-17T07:04:23;98299.31;;;27.59;38.13
77893;BME280;67087;50.094;14.338;2023-08-17T07:06:49;98301.95;;;27.50;38.12
77893;BME280;67087;50.094;14.338;2023-08-17T07:09:14;98302.64;;;27.47;38.40
77893;BME280;67087;50.094;14.338;2023-08-17T07:11:40;98301.87;;;27.49;38.75
77893;BME280;67087;50.094;14.338;2023-08-17T07:14:05;98307.77;;;27.55;38.73
77893;BME280;67087;50.094;14.338;2023-08-17T07:16:30;98313.28;;;27.26;39.20
77893;BME280;67087;50.094;14.338;2023-08-17T07:18:56;98311.75;;;27.32;39.10
77893;BME280;67087;50.094;14.338;2023-08-17T07:21:21;98309.04;;;27.69;38.66
77893;BME280;67087;50.094;14.338;2023-08-17T07:23:46;98311.12;;;27.87;38.86
77893;BME280;67087;50.094;14.338;2023-08-17T07:26:11;98310.87;;;28.11;38.22
77893;BME280;67087;50.094;14.338;2023-08-17T07:28:36;98310.45;;;27.85;38.59
77893;BME280;67087;50.094;14.338;2023-08-17T07:31:01;98309.90;;;27.79;38.83
77893;BME280;67087;50.094;14.338;2023-08-17T07:33:27;98314.21;;;27.46;39.21
77893;BME280;67087;50.094;14.338;2023-08-17T07:35:52;98313.69;;;27.47;39.36
77893;BME280;67087;50.094;14.338;2023-08-17T07:38:17;98316.34;;;27.37;39.63
77893;BME280;67087;50.094;14.338;2023-08-17T07:40:42;98311.92;;;27.65;39.42
77893;BME280;67087;50.094;14.338;2023-08-17T07:43:08;98312.55;;;27.71;39.05
77893;BME280;67087;50.094;14.338;2023-08-17T07:45:33;98314.36;;;27.47;39.51
77893;BME280;67087;50.094;14.338;2023-08-17T07:47:59;98313.82;;;27.39;39.70
77893;BME280;67087;50.094;14.338;2023-08-17T07:50:24;98315.09;;;27.82;39.02
77893;BME280;67087;50.094;14.338;2023-08-17T07:52:49;98315.56;;;27.66;38.86
77893;BME280;67087;50.094;14.338;2023-08-17T07:55:15;98320.29;;;27.67;39.18
77893;BME280;67087;50.094;14.338;2023-08-17T07:57:40;98323.52;;;27.54;39.33
77893;BME280;67087;50.094;14.338;2023-08-17T08:00:07;98320.62;;;27.99;38.53
77893;BME280;67087;50.094;14.338;2023-08-17T08:02:31;98318.44;;;27.55;39.18
77893;BME280;67087;50.094;14.338;2023-08-17T08:04:57;98321.55;;;27.66;38.99
77893;BME280;67087;50.094;14.338;2023-08-17T08:07:22;98328.56;;;27.53;39.04
77893;BME280;67087;50.094;14.338;2023-08-17T08:09:47;98331.62;;;27.43;39.33
77893;BME280;67087;50.094;14.338;2023-08-17T08:12:13;98328.43;;;27.81;38.57
77893;BME280;67087;50.094;14.338;2023-08-17T08:14:38;98323.17;;;27.63;38.64
77893;BME280;67087;50.094;14.338;2023-08-17T08:17:03;98321.27;;;27.59;38.55
77893;BME280;67087;50.094;14.338;2023-08-17T08:19:28;98319.98;;;28.04;38.34
77893;BME280;67087;50.094;14.338;2023-08-17T08:21:54;98313.56;;;27.39;38.96
77893;BME280;67087;50.094;14.338;2023-08-17T08:24:19;98313.26;;;27.28;39.15
77893;BME280;67087;50.094;14.338;2023-08-17T08:26:44;98308.45;;;27.43;38.86
77893;BME280;67087;50.094;14.338;2023-08-17T08:29:10;98311.80;;;27.67;37.99
77893;BME280;67087;50.094;14.338;2023-08-17T08:31:35;98310.93;;;27.72;37.31
77893;BME280;67087;50.094;14.338;2023-08-17T08:34:01;98311.72;;;27.83;37.24
77893;BME280;67087;50.094;14.338;2023-08-17T08:36:26;98312.41;;;27.83;37.38
77893;BME280;67087;50.094;14.338;2023-08-17T08:38:51;98313.02;;;27.33;37.86
77893;BME280;67087;50.094;14.338;2023-08-17T08:41:17;98311.69;;;27.74;37.21
77893;BME280;67087;50.094;14.338;2023-08-17T08:43:42;98310.58;;;27.53;37.31
77893;BME280;67087;50.094;14.338;2023-08-17T08:46:08;98307.09;;;27.78;37.21
77893;BME280;67087;50.094;14.338;2023-08-17T08:48:34;98303.39;;;28.07;36.38
77893;BME280;67087;50.094;14.338;2023-08-17T08:51:00;98302.88;;;27.65;37.05
77893;BME280;67087;50.094;14.338;2023-08-17T08:53:28;98299.16;;;27.81;36.88
77893;BME280;67087;50.094;14.338;2023-08-17T08:55:52;98294.90;;;27.46;37.11
77893;BME280;67087;50.094;14.338;2023-08-17T08:58:15;98291.47;;;27.46;37.61
77893;BME280;67087;50.094;14.338;2023-08-17T09:00:40;98297.56;;;28.05;36.45
77893;BME280;67087;50.094;14.338;2023-08-17T09:03:05;98296.46;;;27.99;35.90
77893;BME280;67087;50.094;14.338;2023-08-17T09:05:31;98296.20;;;27.74;36.77
77893;BME280;67087;50.094;14.338;2023-08-17T09:07:56;98295.43;;;27.60;36.85
77893;BME280;67087;50.094;14.338;2023-08-17T09:10:21;98296.17;;;27.80;36.65
77893;BME280;67087;50.094;14.338;2023-08-17T09:12:47;98294.21;;;27.58;36.65
77893;BME280;67087;50.094;14.338;2023-08-17T09:15:12;98294.65;;;27.62;36.78
77893;BME280;67087;50.094;14.338;2023-08-17T09:17:37;98292.11;;;27.46;36.49
77893;BME280;67087;50.094;14.338;2023-08-17T09:20:03;98293.59;;;27.29;36.68
77893;BME280;67087;50.094;14.338;2023-08-17T09:22:37;98294.54;;;27.80;36.11
77893;BME280;67087;50.094;14.338;2023-08-17T09:24:53;98293.81;;;27.82;35.97
77893;BME280;67087;50.094;14.338;2023-08-17T09:27:20;98287.96;;;28.41;35.12
77893;BME280;67087;50.094;14.338;2023-08-17T09:29:44;98284.83;;;27.89;35.75
77893;BME280;67087;50.094;14.338;2023-08-17T09:32:09;98286.97;;;27.82;36.00
77893;BME280;67087;50.094;14.338;2023-08-17T09:34:35;98284.10;;;28.15;34.97
77893;BME280;67087;50.094;14.338;2023-08-17T09:37:02;98283.27;;;27.23;36.00
77893;BME280;67087;50.094;14.338;2023-08-17T09:39:25;98281.54;;;28.13;35.39
77893;BME280;67087;50.094;14.338;2023-08-17T09:41:55;98281.84;;;27.61;35.83
77893;BME280;67087;50.094;14.338;2023-08-17T09:44:17;98278.34;;;28.06;35.48
77893;BME280;67087;50.094;14.338;2023-08-17T09:46:43;98272.93;;;27.88;35.86
77893;BME280;67087;50.094;14.338;2023-08-17T09:49:08;98272.47;;;27.77;35.78
77893;BME280;67087;50.094;14.338;2023-08-17T09:51:33;98267.86;;;27.85;36.06
77893;BME280;67087;50.094;14.338;2023-08-17T09:53:59;98260.74;;;27.88;35.75
77893;BME280;67087;50.094;14.338;2023-08-17T09:56:27;98258.97;;;28.08;35.50
77893;BME280;67087;50.094;14.338;2023-08-17T09:58:50;98258.87;;;27.62;35.95
77893;BME280;67087;50.094;14.338;2023-08-17T10:01:15;98261.80;;;27.43;36.21
77893;BME280;67087;50.094;14.338;2023-08-17T10:03:43;98263.63;;;27.73;36.34
77893;BME280;67087;50.094;14.338;2023-08-17T10:06:06;98260.04;;;27.92;36.26
77893;BME280;67087;50.094;14.338;2023-08-17T10:08:33;98260.38;;;27.52;36.21
77893;BME280;67087;50.094;14.338;2023-08-17T10:10:58;98262.94;;;28.03;36.08
77893;BME280;67087;50.094;14.338;2023-08-17T10:13:28;98259.66;;;27.56;36.46
77893;BME280;67087;50.094;14.338;2023-08-17T10:15:59;98259.20;;;27.74;36.63
77893;BME280;67087;50.094;14.338;2023-08-17T10:18:19;98259.74;;;27.94;36.38
77893;BME280;67087;50.094;14.338;2023-08-17T10:20:41;98262.68;;;27.56;36.60
77893;BME280;67087;50.094;14.338;2023-08-17T10:23:10;98259.14;;;27.92;36.47
77893;BME280;67087;50.094;14.338;2023-08-17T10:25:29;98255.96;;;27.74;36.47
77893;BME280;67087;50.094;14.338;2023-08-17T10:27:54;98255.43;;;28.15;36.20
77893;BME280;67087;50.094;14.338;2023-08-17T10:30:20;98254.03;;;27.56;36.38
77893;BME280;67087;50.094;14.338;2023-08-17T10:32:46;98254.65;;;28.06;36.38
77893;BME280;67087;50.094;14.338;2023-08-17T10:35:13;98259.58;;;27.81;36.43
77893;BME280;67087;50.094;14.338;2023-08-17T10:37:37;98257.45;;;28.19;36.33
77893;BME280;67087;50.094;14.338;2023-08-17T10:40:03;98254.51;;;27.79;36.54
77893;BME280;67087;50.094;14.338;2023-08-17T10:42:32;98255.66;;;28.12;36.46
77893;BME280;67087;50.094;14.338;2023-08-17T10:44:53;98256.90;;;27.56;36.84
77893;BME280;67087;50.094;14.338;2023-08-17T10:47:21;98254.53;;;27.70;36.24
77893;BME280;67087;50.094;14.338;2023-08-17T10:49:44;98249.95;;;27.73;36.50
77893;BME280;67087;50.094;14.338;2023-08-17T10:52:10;98249.19;;;28.13;36.17
77893;BME280;67087;50.094;14.338;2023-08-17T10:54:36;98245.46;;;28.32;35.90
77893;BME280;67087;50.094;14.338;2023-08-17T10:59:25;98244.13;;;27.74;36.28
77893;BME280;67087;50.094;14.338;2023-08-17T11:01:51;98240.10;;;28.17;36.01
77893;BME280;67087;50.094;14.338;2023-08-17T11:04:17;98242.74;;;27.98;35.64
77893;BME280;67087;50.094;14.338;2023-08-17T11:06:42;98239.39;;;27.98;35.79
77893;BME280;67087;50.094;14.338;2023-08-17T11:09:07;98241.58;;;27.73;35.60
77893;BME280;67087;50.094;14.338;2023-08-17T11:11:32;98243.51;;;27.97;35.71
77893;BME280;67087;50.094;14.338;2023-08-17T11:13:57;98240.79;;;27.96;35.77
77893;BME280;67087;50.094;14.338;2023-08-17T11:16:23;98239.80;;;28.02;35.77
77893;BME280;67087;50.094;14.338;2023-08-17T11:18:48;98236.23;;;28.31;35.83
77893;BME280;67087;50.094;14.338;2023-08-17T11:21:14;98232.97;;;28.18;35.73
77893;BME280;67087;50.094;14.338;2023-08-17T11:23:39;98234.10;;;27.90;35.91
77893;BME280;67087;50.094;14.338;2023-08-17T11:26:04;98233.09;;;28.53;35.63
77893;BME280;67087;50.094;14.338;2023-08-17T11:28:30;98228.44;;;28.43;35.41
77893;BME280;67087;50.094;14.338;2023-08-17T11:30:57;98225.33;;;28.65;35.49
77893;BME280;67087;50.094;14.338;2023-08-17T11:33:21;98221.75;;;28.28;35.74
77893;BME280;67087;50.094;14.338;2023-08-17T11:35:45;98223.64;;;27.91;36.02
77893;BME280;67087;50.094;14.338;2023-08-17T11:38:11;98223.77;;;28.36;35.90
77893;BME280;67087;50.094;14.338;2023-08-17T11:40:36;98225.46;;;28.36;35.99
77893;BME280;67087;50.094;14.338;2023-08-17T11:43:02;98223.63;;;28.51;35.46
77893;BME280;67087;50.094;14.338;2023-08-17T11:45:28;98220.41;;;28.13;35.70
77893;BME280;67087;50.094;14.338;2023-08-17T11:47:53;98221.19;;;28.85;35.41
77893;BME280;67087;50.094;14.338;2023-08-17T11:50:19;98222.90;;;28.01;36.06
77893;BME280;67087;50.094;14.338;2023-08-17T11:52:44;98221.72;;;28.39;36.10
77893;BME280;67087;50.094;14.338;2023-08-17T11:55:10;98212.57;;;27.95;36.44
77893;BME280;67087;50.094;14.338;2023-08-17T11:57:36;98215.22;;;28.68;35.53
77893;BME280;67087;50.094;14.338;2023-08-17T12:00:02;98216.69;;;28.78;35.88
77893;BME280;67087;50.094;14.338;2023-08-17T12:02:26;98217.66;;;28.46;36.22
77893;BME280;67087;50.094;14.338;2023-08-17T12:04:52;98215.53;;;28.46;36.24
77893;BME280;67087;50.094;14.338;2023-08-17T12:07:17;98220.17;;;28.13;36.08
77893;BME280;67087;50.094;14.338;2023-08-17T12:09:43;98221.73;;;28.04;36.35
77893;BME280;67087;50.094;14.338;2023-08-17T12:12:09;98217.78;;;28.11;36.59
77893;BME280;67087;50.094;14.338;2023-08-17T12:14:34;98216.04;;;28.46;35.84
77893;BME280;67087;50.094;14.338;2023-08-17T12:16:59;98211.82;;;28.03;36.44
77893;BME280;67087;50.094;14.338;2023-08-17T12:19:25;98210.44;;;28.28;36.49
77893;BME280;67087;50.094;14.338;2023-08-17T12:21:50;98207.75;;;28.21;36.51
77893;BME280;67087;50.094;14.338;2023-08-17T12:24:15;98201.37;;;28.20;36.27
77893;BME280;67087;50.094;14.338;2023-08-17T12:26:41;98200.12;;;28.16;36.39
77893;BME280;67087;50.094;14.338;2023-08-17T12:29:05;98189.79;;;28.15;36.49
77893;BME280;67087;50.094;14.338;2023-08-17T12:31:31;98186.29;;;28.54;36.49
77893;BME280;67087;50.094;14.338;2023-08-17T12:33:57;98178.02;;;28.30;36.43
77893;BME280;67087;50.094;14.338;2023-08-17T12:36:22;98173.26;;;28.21;36.33
77893;BME280;67087;50.094;14.338;2023-08-17T12:38:47;98174.23;;;28.87;35.96
77893;BME280;67087;50.094;14.338;2023-08-17T12:41:12;98172.81;;;28.36;36.07